SU2175 / VP-BFF 7700 Squawk Report (23rd of July, 2019)

Aircraft A321 Reg No. VP-BFF Age 2 years old
Model A321 Jet engines 2 First flight 11-04-17
Registered 12-05-17 Rollout 04-17 Delivered 13-05-17
Construction No. 7645 Line No. N/A Series 211(SL)
ADSHEX 42434F Airline name Aeroflot Russian Airlines Owner N/A
Airfield based Moscow-Sheremetyevo~Moscow~RA First tracked 2017-07-13 08:54:00

Flight history for VP-BFF

Time Lat Lon Altitude Heading Speed Vertical Rate
2019-07-23 12:23:42 GMT 60.341290 11.164365 3,075 196 171 -832
2019-07-23 12:23:36 GMT 60.345852 11.167014 3,175 196 171 -832
2019-07-23 12:23:20 GMT 60.358200 11.174043 3,425 196 170 -832
2019-07-23 12:23:10 GMT 60.365219 11.178196 3,550 197 171 -960
2019-07-23 12:22:59 GMT 60.374016 11.183493 3,725 197 172 -576
2019-07-23 12:22:50 GMT 60.380814 11.187613 3,850 198 177 -768
2019-07-23 12:22:39 GMT 60.388821 11.192616 3,925 198 178 -192
2019-07-23 12:22:29 GMT 60.397015 11.198207 3,925 205 179 0
2019-07-23 12:22:19 GMT 60.404369 11.207624 3,925 234 174 64
2019-07-23 12:22:08 GMT 60.407814 11.222436 3,950 261 170 -128
2019-07-23 12:21:58 GMT 60.409023 11.238229 3,975 262 169 -320
2019-07-23 12:21:48 GMT 60.410233 11.254218 4,075 262 168 -704
2019-07-23 12:21:37 GMT 60.411400 11.270403 4,200 262 167 -704
2019-07-23 12:21:28 GMT 60.412674 11.287126 4,325 262 169 -768
2019-07-23 12:21:17 GMT 60.413773 11.301996 4,450 262 170 -704
2019-07-23 12:21:07 GMT 60.414963 11.318570 4,575 263 171 -704
2019-07-23 12:20:56 GMT 60.416100 11.335340 4,650 263 177 -512
2019-07-23 12:20:46 GMT 60.417263 11.352801 4,775 262 188 -576
2019-07-23 12:20:36 GMT 60.418613 11.370359 4,875 261 191 -704
2019-07-23 12:20:25 GMT 60.420273 11.389223 4,925 259 189 0
2019-07-23 12:20:15 GMT 60.422058 11.407218 4,925 259 190 0
2019-07-23 12:20:05 GMT 60.423874 11.425389 4,925 259 191 0
2019-07-23 12:19:53 GMT 60.425877 11.444811 4,925 259 193 -128
2019-07-23 12:19:43 GMT 60.427643 11.461866 4,950 259 194 -64
2019-07-23 12:19:34 GMT 60.429600 11.480615 4,925 258 202 -128
2019-07-23 12:19:22 GMT 60.431694 11.500331 4,925 258 212 -64
2019-07-23 12:19:13 GMT 60.433838 11.519361 4,925 257 218 0
2019-07-23 12:18:50 GMT 60.444168 11.561690 4,925 226 233 64
2019-07-23 12:18:41 GMT 60.452175 11.574391 4,925 210 244 64
2019-07-23 12:18:31 GMT 60.464218 11.583568 4,925 187 255 0
2019-07-23 12:18:21 GMT 60.474609 11.584325 4,925 169 258 0
2019-07-23 12:18:10 GMT 60.486954 11.576843 4,925 147 261 0
2019-07-23 12:18:00 GMT 60.496353 11.562031 4,925 128 259 -64
2019-07-23 12:17:48 GMT 60.503815 11.536686 4,925 106 257 64
2019-07-23 12:17:39 GMT 60.505463 11.516892 4,900 88 257 -64
2019-07-23 12:17:29 GMT 60.503849 11.491699 4,925 77 255 0
2019-07-23 12:17:19 GMT 60.501205 11.468022 4,925 77 254 -64
2019-07-23 12:17:08 GMT 60.498638 11.444615 4,925 77 252 0
2019-07-23 12:16:58 GMT 60.496124 11.420667 4,925 78 251 64
2019-07-23 12:16:48 GMT 60.493744 11.397368 4,925 78 252 -64
2019-07-23 12:16:37 GMT 60.491234 11.372910 4,950 77 253 0
2019-07-23 12:16:27 GMT 60.488297 11.348877 4,925 66 253 0
2019-07-23 12:16:17 GMT 60.482250 11.327591 4,925 46 250 -64
2019-07-23 12:16:06 GMT 60.473007 11.311467 4,925 26 246 -64
2019-07-23 12:15:55 GMT 60.461628 11.302577 4,925 9 243 0
2019-07-23 12:15:45 GMT 60.450806 11.301333 4,925 352 240 64
2019-07-23 12:15:35 GMT 60.439545 11.307110 4,925 333 239 -64
2019-07-23 12:15:25 GMT 60.430206 11.319328 4,925 315 237 0
2019-07-23 12:15:15 GMT 60.422974 11.337701 4,925 296 240 64
2019-07-23 12:15:04 GMT 60.419266 11.359765 4,900 275 243 0
2019-07-23 12:14:53 GMT 60.419724 11.383920 4,925 259 245 -128
2019-07-23 12:14:44 GMT 60.422058 11.405608 4,925 258 246 0
2019-07-23 12:14:33 GMT 60.424664 11.429116 4,925 258 244 0
2019-07-23 12:14:23 GMT 60.427132 11.451972 4,925 258 243 64
2019-07-23 12:14:12 GMT 60.429611 11.475220 4,925 259 246 -64
2019-07-23 12:14:02 GMT 60.432018 11.498075 4,925 258 245 0
2019-07-23 12:13:52 GMT 60.434555 11.521343 4,950 256 246 128
2019-07-23 12:13:41 GMT 60.438538 11.545356 4,925 230 251 0
2019-07-23 12:13:30 GMT 60.445988 11.564974 4,925 221 251 0
2019-07-23 12:13:18 GMT 60.458508 11.580375 4,925 202 254 -64
2019-07-23 12:13:05 GMT 60.472706 11.584396 4,925 183 256 128
2019-07-23 12:12:56 GMT 60.483974 11.579001 4,925 156 259 -64
2019-07-23 12:12:48 GMT 60.491234 11.570467 4,925 137 259 0
2019-07-23 12:12:39 GMT 60.498917 11.554208 4,925 121 257 0
2019-07-23 12:12:29 GMT 60.504131 11.530151 4,925 99 254 0
2019-07-23 12:12:18 GMT 60.504829 11.506021 4,925 82 253 -64
2019-07-23 12:12:07 GMT 60.502213 11.478724 4,925 77 254 0
2019-07-23 12:11:58 GMT 60.499989 11.458544 4,925 77 254 0
2019-07-23 12:11:47 GMT 60.497379 11.434021 4,925 78 254 0
2019-07-23 12:11:37 GMT 60.495007 11.410773 4,925 78 254 -64
2019-07-23 12:11:27 GMT 60.492584 11.386250 4,925 78 253 -64
2019-07-23 12:11:16 GMT 60.490211 11.362806 4,950 76 253 192
2019-07-23 12:11:07 GMT 60.486328 11.339122 4,925 60 249 0
2019-07-23 12:10:56 GMT 60.479507 11.320464 4,925 39 246 0
2019-07-23 12:10:46 GMT 60.469635 11.306893 4,925 20 241 64
2019-07-23 12:10:34 GMT 60.457764 11.301238 4,925 359 239 64
2019-07-23 12:10:25 GMT 60.446960 11.304363 4,925 338 238 0
2019-07-23 12:10:15 GMT 60.436630 11.316016 4,925 316 239 0
2019-07-23 12:10:04 GMT 60.429703 11.332492 4,925 298 240 0
2019-07-23 12:09:54 GMT 60.425034 11.354465 4,925 285 240 0
2019-07-23 12:09:43 GMT 60.422699 11.377574 4,925 278 241 0
2019-07-23 12:09:32 GMT 60.421547 11.401258 4,925 275 241 64
2019-07-23 12:09:23 GMT 60.420639 11.423319 4,925 275 242 -128
2019-07-23 12:09:11 GMT 60.419636 11.448539 4,925 275 241 0
2019-07-23 12:09:01 GMT 60.418755 11.470806 4,925 275 241 0
2019-07-23 12:08:52 GMT 60.417847 11.494256 4,925 275 241 -64
2019-07-23 12:08:41 GMT 60.416977 11.517176 4,925 275 239 64
2019-07-23 12:08:31 GMT 60.416153 11.539717 4,950 275 239 64
2019-07-23 12:08:17 GMT 60.414963 11.571540 4,950 275 244 -320
2019-07-23 12:08:08 GMT 60.414238 11.590478 5,025 275 247 -448
2019-07-23 12:07:58 GMT 60.413307 11.614511 5,100 275 252 -512
2019-07-23 12:07:47 GMT 60.412308 11.640204 5,200 275 258 -512
2019-07-23 12:07:38 GMT 60.411446 11.662282 5,275 275 263 -512
2019-07-23 12:07:28 GMT 60.410431 11.687559 5,375 275 269 -576
2019-07-23 12:07:18 GMT 60.409534 11.711132 5,450 275 269 -512
2019-07-23 12:07:06 GMT 60.408234 11.742717 5,550 275 268 -448
2019-07-23 12:06:58 GMT 60.407440 11.762728 5,625 275 268 -512
2019-07-23 12:06:47 GMT 60.406403 11.789182 5,700 275 268 -512
2019-07-23 12:06:38 GMT 60.405396 11.814659 5,775 275 268 -512
2019-07-23 12:06:26 GMT 60.404324 11.840711 5,875 275 267 -512
2019-07-23 12:06:16 GMT 60.403336 11.866560 5,975 275 266 -448
2019-07-23 12:06:03 GMT 60.402008 11.899330 6,000 275 266 0
2019-07-23 12:05:56 GMT 60.401230 11.918651 6,000 275 266 0
We lost coverage of the aircraft here for a total of 18 minutes
2019-07-23 11:47:31 GMT 60.187637 12.514185 12,250 82 400 -4096
2019-07-23 11:47:14 GMT 60.184433 12.453950 13,500 90 398 -4864
2019-07-23 11:47:07 GMT 60.184067 12.428947 14,025 92 398 -4544
2019-07-23 11:46:56 GMT 60.185478 12.386202 14,825 95 400 -3904
2019-07-23 11:46:46 GMT 60.187202 12.352557 15,350 95 403 -2944
2019-07-23 11:46:36 GMT 60.189194 12.313780 15,850 95 408 -3008
2019-07-23 11:46:26 GMT 60.191158 12.275946 16,350 95 413 -2880
2019-07-23 11:46:15 GMT 60.193298 12.233571 16,800 95 419 -2304
2019-07-23 11:46:05 GMT 60.195236 12.195392 17,125 95 427 -1472
2019-07-23 11:45:56 GMT 60.197212 12.155784 17,275 95 435 -576
2019-07-23 11:45:45 GMT 60.199352 12.112721 17,350 95 439 -128
2019-07-23 11:45:35 GMT 60.201401 12.071424 17,350 95 440 0
2019-07-23 11:45:25 GMT 60.203403 12.029539 17,325 95 441 0
2019-07-23 11:45:12 GMT 60.205730 11.981572 17,300 95 440 640
2019-07-23 11:45:04 GMT 60.207367 11.947158 17,100 95 436 1536
2019-07-23 11:44:54 GMT 60.209335 11.904823 16,825 95 434 1600
2019-07-23 11:44:43 GMT 60.211315 11.862390 16,550 95 431 1664
2019-07-23 11:44:32 GMT 60.213226 11.820602 16,250 95 429 1536
2019-07-23 11:44:22 GMT 60.215057 11.780659 16,000 95 426 1664
2019-07-23 11:44:12 GMT 60.216888 11.740881 15,725 95 423 1536
2019-07-23 11:44:02 GMT 60.218811 11.698735 15,450 95 420 1472
2019-07-23 11:43:51 GMT 60.220627 11.658358 15,175 95 418 1664
2019-07-23 11:43:41 GMT 60.222382 11.619747 14,850 95 417 1920
2019-07-23 11:43:30 GMT 60.224258 11.578927 14,525 95 416 1984
2019-07-23 11:43:21 GMT 60.225979 11.540451 14,175 95 415 1984
2019-07-23 11:43:09 GMT 60.227936 11.496310 13,850 95 413 1600
2019-07-23 11:42:59 GMT 60.229469 11.461585 13,600 95 410 1728
2019-07-23 11:42:50 GMT 60.231216 11.421425 13,275 94 409 1856
2019-07-23 11:42:39 GMT 60.232822 11.383602 12,975 94 407 1728
2019-07-23 11:42:27 GMT 60.234695 11.338554 12,575 94 406 2240
2019-07-23 11:42:18 GMT 60.236080 11.304735 12,275 94 405 1600
2019-07-23 11:42:08 GMT 60.237671 11.267427 12,125 94 397 640
2019-07-23 11:41:57 GMT 60.239365 11.228406 11,975 95 389 896
2019-07-23 11:41:47 GMT 60.240925 11.192616 11,800 95 382 1408
2019-07-23 11:41:38 GMT 60.242569 11.156806 11,525 95 377 1920
2019-07-23 11:41:26 GMT 60.244507 11.117870 11,075 96 376 2560
2019-07-23 11:41:17 GMT 60.246323 11.084637 10,725 96 373 1728
2019-07-23 11:41:06 GMT 60.248474 11.047889 10,475 97 368 1408
2019-07-23 11:40:56 GMT 60.250511 11.014677 10,250 97 363 1408
2019-07-23 11:40:46 GMT 60.252777 10.978088 9,975 96 356 1472
2019-07-23 11:40:34 GMT 60.254608 10.943168 9,700 94 349 1664
2019-07-23 11:40:24 GMT 60.255569 10.910371 9,400 90 343 1856
2019-07-23 11:40:14 GMT 60.255074 10.879408 9,125 78 332 1536
2019-07-23 11:40:04 GMT 60.251038 10.850325 8,875 62 319 1472
2019-07-23 11:39:52 GMT 60.241016 10.821729 8,575 42 303 1344
2019-07-23 11:39:43 GMT 60.231380 10.807212 8,375 27 288 1344
2019-07-23 11:39:33 GMT 60.219086 10.796909 8,150 14 274 1536
2019-07-23 11:39:22 GMT 60.206100 10.792106 7,800 2 263 2240
2019-07-23 11:39:13 GMT 60.194366 10.792268 7,375 357 260 3136

Making use of Plane Finder data

You are free to use the raw flight data, aircraft information and images provided in this report for your own purposes provided the data is correctly attributed to Plane Finder. We ask that you please credit Plane Finder and link to planefinder.net in close proximity to the content.

Optionally one of the following logos (no smaller then 150x24px) can be used and must link to planefinder.net

Embedding the Plane Finder map

You are welcome to embed the Plane Finder playback map on your website to offer visitors a more interactive experience. We suggest using the following HTML code:

<iframe src="//planefinder.net/data/report/SU2175-VP-BFF-7700-squawk-2019-07-23/map" width="800" height="600" seamless="seamless"></iframe>

Where our data comes from

Plane Finder has a global network of data feeds and antenna radars that receive data broadcast directly from aircraft. The primary technologies used are ADS-B and MLAT. We also show feeds from the FAA and a FLARM glider feed.

Click here to find out more about the Plane Finder network.

How we collect our data